createdAt,value
2019-01-03T00:01:50.990Z,3.12
2019-01-03T00:04:36.987Z,2.92
2019-01-03T00:07:38.494Z,2.77
2019-01-03T00:10:33.901Z,3.00
2019-01-03T00:13:41.390Z,2.70
2019-01-03T00:16:39.861Z,2.67
2019-01-03T00:19:27.882Z,3.15
2019-01-03T00:22:15.902Z,2.87
2019-01-03T00:25:03.924Z,3.30
2019-01-03T00:28:02.148Z,2.60
2019-01-03T00:30:57.632Z,2.77
2019-01-03T00:33:53.079Z,3.15
2019-01-03T00:36:48.436Z,3.10
2019-01-03T00:39:38.746Z,2.87
2019-01-03T00:42:21.494Z,2.80
2019-01-03T00:45:09.466Z,2.62
2019-01-03T00:48:10.750Z,2.80
2019-01-03T00:50:54.481Z,2.45
2019-01-03T00:54:01.950Z,3.02
2019-01-03T00:56:51.590Z,3.02
2019-01-03T00:59:41.199Z,2.70
2019-01-03T01:02:24.595Z,2.60
2019-01-03T01:05:26.054Z,3.12
2019-01-03T01:08:15.634Z,3.35
2019-01-03T01:11:07.816Z,2.70
2019-01-03T01:13:56.141Z,2.98
2019-01-03T01:16:44.173Z,3.47
2019-01-03T01:19:39.534Z,3.20
2019-01-03T01:22:28.963Z,2.55
2019-01-03T01:25:18.507Z,3.12
2019-01-03T01:28:19.413Z,2.77
2019-01-03T01:31:07.486Z,3.20
2019-01-03T01:34:04.806Z,2.80
2019-01-03T01:37:00.140Z,2.95
2019-01-03T01:39:48.224Z,3.90
2019-01-03T01:42:36.446Z,2.77
2019-01-03T01:45:24.374Z,2.58
2019-01-03T01:48:13.710Z,3.35
2019-01-03T01:51:01.552Z,3.20
2019-01-03T01:53:51.217Z,2.72
2019-01-03T01:56:49.690Z,3.60
2019-01-03T01:59:39.473Z,3.40
2019-01-03T02:02:27.237Z,3.33
2019-01-03T02:05:19.988Z,3.20
2019-01-03T02:08:09.677Z,3.05
2019-01-03T02:11:02.282Z,2.85
2019-01-03T02:13:53.936Z,2.50
2019-01-03T02:16:55.372Z,4.45
2019-01-03T02:19:47.280Z,2.50
2019-01-03T02:22:42.465Z,3.30
2019-01-03T02:25:40.963Z,3.02
2019-01-03T02:28:28.903Z,3.15
2019-01-03T02:31:17.181Z,2.98
2019-01-03T02:34:24.672Z,3.15
2019-01-03T02:37:12.852Z,2.62
2019-01-03T02:40:08.422Z,2.87
2019-01-03T02:42:56.279Z,2.85
2019-01-03T02:45:57.605Z,2.17
2019-01-03T02:48:58.691Z,2.70
2019-01-03T02:51:53.823Z,2.62
2019-01-03T02:54:52.497Z,3.52
2019-01-03T02:57:54.257Z,3.08
2019-01-03T03:00:42.330Z,2.62
2019-01-03T03:03:46.847Z,2.20
2019-01-03T03:06:32.350Z,3.62
2019-01-03T03:09:20.887Z,2.02
2019-01-03T03:12:05.664Z,2.95
2019-01-03T03:14:47.750Z,2.72
2019-01-03T03:17:35.850Z,2.02
2019-01-03T03:20:29.185Z,1.95
2019-01-03T03:23:17.253Z,2.72
2019-01-03T03:26:05.393Z,2.10
2019-01-03T03:28:54.872Z,2.58
2019-01-03T03:31:59.608Z,2.52
2019-01-03T03:34:58.273Z,2.60
2019-01-03T03:38:05.545Z,2.37
2019-01-03T03:40:53.380Z,3.10
2019-01-03T03:43:41.853Z,2.50
2019-01-03T03:46:29.889Z,2.85
2019-01-03T03:49:25.630Z,2.58
2019-01-03T03:52:29.940Z,1.60
2019-01-03T03:55:18.827Z,2.42
2019-01-03T03:58:20.304Z,2.47
2019-01-03T04:01:08.124Z,2.35
2019-01-03T04:04:03.853Z,2.27
2019-01-03T04:06:52.075Z,2.33
2019-01-03T04:09:39.424Z,2.08
2019-01-03T04:12:41.116Z,2.33
2019-01-03T04:15:36.770Z,2.27
2019-01-03T04:18:21.633Z,2.02
2019-01-03T04:21:17.227Z,2.10
2019-01-03T04:24:24.541Z,2.75
2019-01-03T04:27:12.378Z,3.47
2019-01-03T04:30:00.663Z,2.95
2019-01-03T04:32:48.729Z,2.60
2019-01-03T04:35:36.848Z,2.62
2019-01-03T04:38:24.665Z,2.15
2019-01-03T04:41:08.295Z,1.87
2019-01-03T04:44:05.472Z,2.60
2019-01-03T04:46:53.528Z,2.77
2019-01-03T04:49:48.903Z,2.20
2019-01-03T04:52:47.540Z,2.37
2019-01-03T04:55:35.806Z,1.80
2019-01-03T04:58:23.613Z,2.50
2019-01-03T05:02:32.693Z,3.35
2019-01-03T05:05:17.303Z,2.75
2019-01-03T05:08:07.500Z,2.17
2019-01-03T05:11:06.223Z,2.70
2019-01-03T05:14:04.818Z,2.20
2019-01-03T05:17:12.080Z,2.35
2019-01-03T05:19:59.803Z,3.00
2019-01-03T05:23:02.806Z,2.20
2019-01-03T05:25:55.760Z,2.52
2019-01-03T05:28:55.302Z,2.72
2019-01-03T05:31:55.296Z,3.00
2019-01-03T05:34:43.098Z,2.60
2019-01-03T05:37:38.505Z,2.75
2019-01-03T05:40:26.611Z,2.70
2019-01-03T05:43:14.453Z,2.90
2019-01-03T05:46:02.573Z,2.40
2019-01-03T05:48:50.769Z,2.40
2019-01-03T05:51:38.776Z,2.83
2019-01-03T05:54:21.257Z,2.00
2019-01-03T05:57:22.620Z,2.60
2019-01-03T06:00:10.606Z,2.33
2019-01-03T06:03:08.893Z,2.05
2019-01-03T06:05:49.625Z,2.42
2019-01-03T06:08:37.491Z,2.42
2019-01-03T06:11:41.858Z,2.60
2019-01-03T06:14:40.943Z,2.52
2019-01-03T06:17:28.854Z,2.60
2019-01-03T06:20:16.899Z,2.47
2019-01-03T06:23:24.498Z,2.35
2019-01-03T06:26:17.658Z,3.60
2019-01-03T06:29:10.272Z,3.45
2019-01-03T06:32:07.473Z,3.05
2019-01-03T06:35:14.954Z,2.40
2019-01-03T06:38:10.395Z,2.72
2019-01-03T06:40:59.373Z,2.60
2019-01-03T06:43:54.667Z,2.65
2019-01-03T06:46:42.410Z,2.90
2019-01-03T06:49:30.674Z,3.10
2019-01-03T06:52:12.751Z,2.90
2019-01-03T06:55:00.808Z,3.15
2019-01-03T06:57:50.878Z,2.40
2019-01-03T07:00:38.895Z,3.35
2019-01-03T07:03:27.063Z,2.87
2019-01-03T07:06:22.936Z,3.10
2019-01-03T07:09:12.078Z,3.55
2019-01-03T07:12:00.312Z,2.98
2019-01-03T07:14:56.329Z,2.95
2019-01-03T07:17:55.104Z,2.10
2019-01-03T07:20:41.839Z,2.50
2019-01-03T07:23:49.253Z,3.50
2019-01-03T07:26:41.680Z,2.55
2019-01-03T07:29:43.743Z,3.10
2019-01-03T07:32:38.125Z,2.90
2019-01-03T07:35:26.279Z,3.22
2019-01-03T07:38:16.320Z,2.40
2019-01-03T07:41:04.691Z,2.70
2019-01-03T07:43:55.523Z,2.62
2019-01-03T07:46:43.962Z,3.85
2019-01-03T07:49:32.346Z,2.95
2019-01-03T07:52:31.501Z,3.08
2019-01-03T07:55:28.237Z,3.98
2019-01-03T07:58:37.738Z,3.60
2019-01-03T08:01:51.150Z,2.02
2019-01-03T08:05:03.217Z,3.02
2019-01-03T08:07:55.238Z,3.00
2019-01-03T08:10:43.994Z,4.12
2019-01-03T08:13:51.329Z,2.87
2019-01-03T08:17:59.302Z,3.40
2019-01-03T08:20:47.685Z,2.62
2019-01-03T08:23:57.317Z,2.45
2019-01-03T08:26:55.912Z,2.40
2019-01-03T08:29:46.587Z,2.87
2019-01-03T08:32:34.331Z,3.70
2019-01-03T08:35:22.189Z,3.00
2019-01-03T08:38:14.098Z,2.65
2019-01-03T08:41:03.981Z,3.40
2019-01-03T08:43:54.296Z,2.60
2019-01-03T08:46:42.195Z,3.05
2019-01-03T08:49:29.948Z,3.33
2019-01-03T08:52:28.389Z,3.37
2019-01-03T08:55:16.698Z,2.80
2019-01-03T08:58:18.485Z,3.27
2019-01-03T09:01:04.511Z,3.33
2019-01-03T09:03:56.757Z,3.00
2019-01-03T09:06:44.956Z,3.30
2019-01-03T09:09:40.178Z,2.83
2019-01-03T09:12:32.153Z,3.72
2019-01-03T09:15:27.417Z,2.72
2019-01-03T09:18:15.590Z,3.77
2019-01-03T09:21:04.629Z,3.37
2019-01-03T09:23:52.393Z,2.62
2019-01-03T09:26:49.874Z,2.72
2019-01-03T09:30:25.286Z,3.00
2019-01-03T09:34:57.567Z,2.90
2019-01-03T09:36:47.997Z,2.75
2019-01-03T09:39:46.695Z,2.12
2019-01-03T09:43:03.079Z,3.35
2019-01-03T09:45:43.823Z,2.95
2019-01-03T09:48:05.352Z,2.27
2019-01-03T09:50:38.481Z,2.80
2019-01-03T09:53:08.731Z,3.05
2019-01-03T09:55:38.610Z,3.12
2019-01-03T09:58:08.453Z,2.65
2019-01-03T10:00:38.955Z,3.00
2019-01-03T10:03:09.323Z,2.52
2019-01-03T10:05:39.459Z,2.95
2019-01-03T10:08:09.601Z,2.60
2019-01-03T10:10:39.742Z,2.47
2019-01-03T10:13:09.942Z,2.90
2019-01-03T10:15:40.203Z,2.72
2019-01-03T10:18:10.478Z,3.10
2019-01-03T10:20:40.871Z,2.77
2019-01-03T10:23:11.303Z,3.40
2019-01-03T10:25:42.051Z,3.77
2019-01-03T10:28:12.306Z,2.60
2019-01-03T10:30:43.293Z,2.60
2019-01-03T10:33:13.292Z,2.47
2019-01-03T10:35:43.460Z,2.60
2019-01-03T10:38:13.712Z,3.00
2019-01-03T10:40:43.906Z,2.30
2019-01-03T10:43:14.989Z,2.83
2019-01-03T10:45:45.625Z,2.33
2019-01-03T10:48:53.038Z,2.30
2019-01-03T10:51:22.541Z,2.70
2019-01-03T10:53:53.196Z,2.50
2019-01-03T10:56:23.416Z,2.37
2019-01-03T10:58:53.715Z,2.30
2019-01-03T11:01:23.625Z,2.80
2019-01-03T11:03:54.043Z,3.47
2019-01-03T11:06:23.925Z,2.05
2019-01-03T11:08:54.840Z,1.75
2019-01-03T11:11:25.049Z,1.98
2019-01-03T11:13:56.906Z,1.95
2019-01-03T11:16:28.375Z,2.60
2019-01-03T11:19:00.167Z,2.67
2019-01-03T11:21:31.642Z,2.67
2019-01-03T11:24:03.383Z,2.55
2019-01-03T11:26:34.947Z,3.45
2019-01-03T11:29:06.736Z,2.17
2019-01-03T11:31:36.873Z,1.82
2019-01-03T11:34:06.852Z,2.30
2019-01-03T11:36:36.762Z,2.00
2019-01-03T11:39:07.406Z,2.25
2019-01-03T11:41:37.787Z,2.08
2019-01-03T11:44:09.412Z,2.25
2019-01-03T11:46:40.005Z,3.20
2019-01-03T11:49:09.873Z,2.50
2019-01-03T11:51:40.145Z,2.40
2019-01-03T11:54:10.158Z,2.27
2019-01-03T11:56:40.289Z,2.50
2019-01-03T11:59:10.341Z,2.40
2019-01-03T12:01:40.779Z,2.45
2019-01-03T12:04:11.064Z,1.98
2019-01-03T12:06:41.512Z,2.30
2019-01-03T12:09:11.742Z,2.30
2019-01-03T12:11:41.750Z,3.00
2019-01-03T12:14:11.906Z,2.30
2019-01-03T12:16:41.955Z,1.95
2019-01-03T12:19:12.163Z,2.40
2019-01-03T12:21:42.071Z,2.77
2019-01-03T12:24:12.009Z,3.25
2019-01-03T12:26:42.091Z,2.45
2019-01-03T12:29:12.088Z,2.12
2019-01-03T12:31:42.254Z,3.22
2019-01-03T12:34:12.089Z,2.27
2019-01-03T12:36:42.052Z,2.50
2019-01-03T12:39:12.287Z,3.10
2019-01-03T12:41:42.677Z,2.50
2019-01-03T12:44:15.220Z,2.70
2019-01-03T12:46:45.164Z,3.20
2019-01-03T12:49:15.258Z,2.55
2019-01-03T12:51:45.313Z,2.60
2019-01-03T12:54:15.301Z,2.98
2019-01-03T12:56:45.219Z,3.20
2019-01-03T12:59:15.109Z,3.10
2019-01-03T13:01:45.131Z,2.77
2019-01-03T13:04:15.897Z,3.50
2019-01-03T13:06:45.938Z,3.50
2019-01-03T13:09:19.589Z,3.58
2019-01-03T13:11:49.591Z,3.40
2019-01-03T13:14:19.529Z,4.80
2019-01-03T13:16:50.296Z,4.30
2019-01-03T13:19:20.368Z,5.55
2019-01-03T13:21:50.287Z,4.55
2019-01-03T13:24:20.425Z,5.85
2019-01-03T13:26:50.533Z,7.08
2019-01-03T13:29:20.432Z,5.95
2019-01-03T13:31:50.496Z,5.62
2019-01-03T13:34:20.547Z,6.75
2019-01-03T13:36:50.472Z,6.25
2019-01-03T13:39:20.582Z,6.83
2019-01-03T13:41:50.596Z,6.83
2019-01-03T13:44:20.559Z,6.05
2019-01-03T13:46:50.674Z,7.35
2019-01-03T13:49:20.682Z,6.33
2019-01-03T13:51:50.651Z,6.20
2019-01-03T13:54:20.788Z,6.05
2019-01-03T13:56:51.219Z,6.17
2019-01-03T13:59:21.300Z,5.60
2019-01-03T14:01:51.411Z,8.05
2019-01-03T14:04:21.672Z,6.53
2019-01-03T14:06:51.636Z,6.97
2019-01-03T14:09:22.556Z,6.25
2019-01-03T14:11:53.156Z,5.90
2019-01-03T14:14:23.186Z,5.35
2019-01-03T14:16:53.119Z,6.53
2019-01-03T14:41:00.105Z,7.25
2019-01-03T15:19:12.094Z,7.85
2019-01-03T15:21:47.333Z,8.70
2019-01-03T15:25:59.776Z,8.35
2019-01-03T15:27:09.088Z,9.18
2019-01-03T15:29:40.327Z,8.50
2019-01-03T15:32:12.590Z,5.40
2019-01-03T15:34:54.324Z,8.15
2019-01-03T15:37:24.591Z,10.08
2019-01-03T15:39:56.847Z,10.00
2019-01-03T15:42:26.842Z,10.08
2019-01-03T15:44:56.945Z,8.80
2019-01-03T15:48:12.821Z,9.63
2019-01-03T15:53:49.849Z,9.05
2019-01-03T15:56:48.363Z,8.75
2019-01-03T15:59:19.765Z,9.93
2019-01-03T16:02:37.713Z,9.73
2019-01-03T16:05:08.330Z,11.00
2019-01-03T16:07:39.739Z,9.08
2019-01-03T16:10:09.878Z,10.13
2019-01-03T16:12:40.663Z,9.73
2019-01-03T16:19:02.091Z,7.97
2019-01-03T16:23:06.974Z,10.53
2019-01-03T16:25:47.936Z,11.40
2019-01-03T16:29:59.957Z,10.68
2019-01-03T16:37:37.318Z,9.85
2019-01-03T16:40:23.577Z,13.32
2019-01-03T16:43:22.706Z,9.33
2019-01-03T16:46:14.172Z,11.88
2019-01-03T16:48:50.714Z,10.80
2019-01-03T16:53:37.244Z,12.40
2019-01-03T16:54:33.933Z,15.50
2019-01-03T16:57:57.429Z,12.03
2019-01-03T17:00:32.893Z,13.55
2019-01-03T17:03:11.977Z,13.00
2019-01-03T17:06:25.335Z,12.65
2019-01-03T17:14:58.579Z,13.22
2019-01-03T17:33:55.110Z,13.05
2019-01-03T17:49:49.913Z,15.20
2019-01-03T17:52:27.673Z,13.80
2019-01-03T17:55:01.286Z,14.70
2019-01-03T17:57:32.457Z,14.93
2019-01-03T18:02:45.296Z,13.80
2019-01-03T18:05:26.318Z,18.80
2019-01-03T18:16:07.600Z,15.48
2019-01-03T18:18:45.933Z,14.25
2019-01-03T18:21:18.309Z,15.85
2019-01-03T18:23:52.642Z,14.87
2019-01-03T18:26:24.872Z,15.58
2019-01-03T18:29:10.354Z,15.80
2019-01-03T18:31:38.614Z,14.78
2019-01-03T18:35:37.255Z,15.35
2019-01-03T18:46:37.459Z,15.48
2019-01-03T18:49:08.115Z,17.67
2019-01-03T18:51:45.525Z,16.82
2019-01-03T18:55:55.505Z,17.23
2019-01-03T18:58:37.348Z,18.98
2019-01-03T19:01:11.750Z,16.02
2019-01-03T19:06:38.163Z,17.95
2019-01-03T19:09:31.491Z,16.37
2019-01-03T19:12:01.898Z,19.95
2019-01-03T19:14:31.777Z,16.32
2019-01-03T19:17:02.686Z,15.20
2019-01-03T19:19:47.818Z,18.60
2019-01-03T19:22:18.318Z,16.42
2019-01-03T19:24:48.196Z,17.57
2019-01-03T19:27:20.014Z,16.80
2019-01-03T19:29:52.979Z,18.65
2019-01-03T19:32:25.825Z,18.70
2019-01-03T19:34:55.972Z,18.85
2019-01-03T19:37:26.278Z,21.12
2019-01-03T19:39:57.256Z,20.62
2019-01-03T19:42:27.171Z,20.32
2019-01-03T19:44:57.379Z,15.63
2019-01-03T19:47:30.536Z,17.25
2019-01-03T19:50:01.613Z,19.35
2019-01-03T19:52:32.173Z,17.82
2019-01-03T19:55:02.360Z,15.53
2019-01-03T19:57:32.664Z,18.65
2019-01-03T20:00:03.011Z,16.77
2019-01-03T20:02:34.188Z,17.42
2019-01-03T20:05:04.465Z,19.23
2019-01-03T20:07:34.669Z,18.12
2019-01-03T20:10:07.506Z,18.12
2019-01-03T20:12:37.404Z,18.60
2019-01-03T20:15:10.533Z,18.75
2019-01-03T20:17:40.656Z,16.37
2019-01-03T20:20:11.443Z,16.75
2019-01-03T20:22:41.437Z,16.57
2019-01-03T20:25:11.409Z,16.35
2019-01-03T20:27:41.491Z,16.35
2019-01-03T20:30:11.598Z,19.92
2019-01-03T20:32:41.545Z,19.48
2019-01-03T20:35:13.266Z,19.55
2019-01-03T20:37:43.335Z,16.40
2019-01-03T20:40:14.599Z,18.40
2019-01-03T20:42:45.420Z,18.07
2019-01-03T20:45:15.850Z,20.20
2019-01-03T20:47:45.770Z,19.80
2019-01-03T20:50:15.661Z,22.52
2019-01-03T20:52:45.657Z,17.27
2019-01-03T20:55:15.560Z,16.50
2019-01-03T20:57:47.066Z,20.37
2019-01-03T21:00:17.001Z,18.55
2019-01-03T21:02:47.104Z,13.80
2019-01-03T21:05:17.768Z,18.75
2019-01-03T21:07:49.005Z,16.60
2019-01-03T21:10:19.332Z,20.55
2019-01-03T21:12:49.301Z,20.60
2019-01-03T21:15:19.577Z,20.02
2019-01-03T21:17:49.533Z,19.40
2019-01-03T21:20:19.425Z,17.60
2019-01-03T21:22:49.479Z,18.17
2019-01-03T21:25:19.360Z,22.27
2019-01-03T21:28:07.193Z,18.80
2019-01-03T21:30:29.038Z,19.70
2019-01-03T21:32:59.060Z,18.57
2019-01-03T21:35:28.991Z,19.65
2019-01-03T21:37:59.083Z,21.27
2019-01-03T21:40:29.117Z,23.52
2019-01-03T21:42:59.045Z,22.15
2019-01-03T21:45:28.972Z,23.45
2019-01-03T21:48:08.362Z,20.65
2019-01-03T21:50:38.363Z,18.15
2019-01-03T21:53:08.332Z,20.23
2019-01-03T21:55:41.049Z,22.02
2019-01-03T21:58:11.128Z,20.27
2019-01-03T22:00:41.251Z,20.05
2019-01-03T22:03:12.158Z,19.30
2019-01-03T22:05:42.222Z,19.48
2019-01-03T22:08:12.372Z,21.85
2019-01-03T22:10:42.362Z,21.73
2019-01-03T22:13:12.254Z,21.70
2019-01-03T22:15:43.429Z,19.82
2019-01-03T22:18:13.435Z,21.97
2019-01-03T22:20:43.330Z,20.90
2019-01-03T22:23:13.411Z,19.48
2019-01-03T22:25:43.431Z,17.95
2019-01-03T22:28:13.349Z,17.45
2019-01-03T22:30:44.774Z,21.10
2019-01-03T22:39:02.234Z,19.10
2019-01-03T22:41:35.275Z,17.70
2019-01-03T22:44:18.567Z,19.62
2019-01-03T22:46:48.731Z,20.23
2019-01-03T22:49:18.679Z,20.00
2019-01-03T22:51:49.072Z,20.05
2019-01-03T22:54:19.224Z,19.80
2019-01-03T22:56:49.425Z,17.98
2019-01-03T22:59:19.372Z,19.75
2019-01-03T23:01:49.574Z,18.60
2019-01-03T23:04:20.672Z,18.62
2019-01-03T23:06:50.744Z,19.80
2019-01-03T23:09:21.298Z,34.53
2019-01-03T23:11:51.349Z,21.60
2019-01-03T23:14:21.295Z,21.23
2019-01-03T23:16:52.202Z,20.80
2019-01-03T23:19:22.159Z,22.30
2019-01-03T23:21:52.102Z,22.05
2019-01-03T23:24:22.738Z,18.37
2019-01-03T23:26:53.037Z,19.48
2019-01-03T23:29:23.611Z,18.70
2019-01-03T23:31:53.950Z,18.95
2019-01-03T23:34:28.109Z,17.12
2019-01-03T23:36:56.194Z,20.02
2019-01-03T23:39:26.513Z,18.80
2019-01-03T23:41:56.796Z,19.92
2019-01-03T23:44:26.915Z,20.00
2019-01-03T23:46:57.100Z,19.45
2019-01-03T23:49:27.079Z,18.90
2019-01-03T23:51:57.070Z,23.00
2019-01-03T23:54:27.549Z,21.95
2019-01-03T23:56:57.891Z,19.87
2019-01-03T23:59:28.274Z,20.70
